The Fort, SD

6:53 PM MDT en Marzo 29, 2017 (GMT -0600)
Pacer Subdivision | | Change Station

Alt 5558 ft 43.73 °N, 103.60 °W | Updated 11 seconds ago

Parcialmente nublado
Parcialmente nublado
40.8 ° F
Sensación térmica 41 ° F
N
0.0
Viento Variable Viento desde SSE
Gusts 0.0 mph

Hoy
Alta -- | Baja -- ° F
--% Posibilidad de precipitaciones
Ayer
Alta -- | Baja -- ° F
Precip. -- pul
Presión 29.96 pul
Visibilidad 10.0 Millas
Nubes Baja 2100 ft
Nubes dispersas 6000 ft
Vientos helados 41 ° F
Punto de rocío 35 ° F
Humedad 81%
Precipitaciones 0.00 pul
Espesor de la nieve No disponible.
6:40 AM 7:18 PM
Creciente, 5% visible
SPECI KCUT 300044Z AUTO 07007KT 10SM FEW021 SCT060 05/02 A2996 RMK AO2 T00500017
Presión 29.96 pul
Visibilidad 10.0 Millas
Nubes Baja 2100 ft
Nubes dispersas 6000 ft
Vientos helados 41 ° F
Punto de rocío 35 ° F
Humedad 81%
Precipitaciones 0.00 pul
Espesor de la nieve No disponible.
6:40 AM 7:18 PM
Creciente, 5% visible
SPECI KCUT 300044Z AUTO 07007KT 10SM FEW021 SCT060 05/02 A2996 RMK AO2 T00500017

Get Severe Weather Alerts

Thanks for signing up!

Be on the lookout for a verification email in your inbox.

You'll start receiving the daily forecast at 8 AM.

×

10-Day Weather Forecast

Almanac

Astronomía

Mar. 29, 2017 Salida Puesta
Hora real
Crepúsculo civil
Crepúsculo náutico
Crepúsculo astronómico
Luna
Horas de luz
Horas de luz
Tomorrow will be .
, % of the Moon is Illuminated

Extremos de hoy

Máximos del estado Bajos del estado

Community

WunderPhotos

Upload Photos

1,962,540 ¡fotos cargadas!

WunderBlog® & News

Nearby

Calidad del aire

  Calidad del aire Índice AQ Contaminante
Not available.

Grosos de nieve

Estación Profundido Altura

Actividad de terremotos

Ciudad Distance Mag. Tiempo y dato
Magnitud mínima muestra es 2,5.

Actividad de terremotos

Ciudad Distance Mag. Tiempo y dato
Magnitud mínima muestra es 2,5.

Temperaturas de aguas costeras

Lugar Temperatura

Stations

Estaciones meteorológicas cercanas

Ubicación de la estación Temp. Vientos helados Punto de rocío Humedad Viento Precip. Alt Actualizado Tipo
                   

Watches & Warnings

There are currently no watches in effect.